Flight Track Log - Related Links

Times and Time Zones

All times are in EDT time to prevent confusion due to time zone crossing. See the FLG3752 flight status page for this flight to view local times or setup timezone preferences in your user account.


Time Position Orientation Groundspeed Altitude Reporting Facility
EDT Latitude Longitude Course Direction KTS MPH feet Rate Location/Type
Tue 07:11:55 PM 33.6478 -84.3781 323° Northwest 439 505 2,400  Level Atlanta Center
Tue 07:12:55 PM 33.6625 -84.2983 77° East 323 372 3,600 1,765 Climbing Atlanta Center
Tue 07:13:54 PM 33.7167 -84.2833 13° North 274 315 5,900 2,200 Climbing Atlanta TRACON
Tue 07:14:00 PM 33.8976 -84.2309 320° Northwest  Level FlightAware Approximate
Tue 07:15:00 PM 33.9838 -84.3170 320° Northwest  Level FlightAware Approximate
Tue 07:15:55 PM 33.8817 -84.3267 348° North 308 354 10,200  Level Atlanta Center
Tue 07:16:00 PM 34.0699 -84.4032 320° Northwest  Level FlightAware Approximate
Tue 07:16:55 PM 33.9608 -84.3794 331° Northwest 315 362 11,700  Level Atlanta Center
Tue 07:17:00 PM 34.1622 -84.4731 323° Northwest  Level FlightAware Approximate
Tue 07:17:55 PM 34.0442 -84.4350 331° Northwest 335 386 13,300  Level Atlanta Center
Tue 07:18:55 PM 34.1336 -84.4931 332° Northwest 340 391 14,900 1,600 Climbing Atlanta Center
Tue 07:19:55 PM 34.2211 -84.5514 331° Northwest 356 410 16,500 1,550 Climbing Atlanta Center
Tue 07:20:55 PM 34.3106 -84.6022 335° Northwest 351 404 18,000 1,200 Climbing Atlanta Center
Tue 07:21:55 PM 34.4147 -84.6256 350° North 357 411 18,900 900 Climbing Atlanta Center
Tue 07:22:55 PM 34.5211 -84.6514 349° North 385 443 19,800 900 Climbing Atlanta Center
Tue 07:23:55 PM 34.6275 -84.6800 348° North 392 451 20,700 900 Climbing Atlanta Center
Tue 07:24:55 PM 34.7336 -84.7061 349° North 387 445 21,600 900 Climbing Atlanta Center
Tue 07:25:55 PM 34.8442 -84.7347 348° North 392 451 22,500 900 Climbing Atlanta Center
Tue 07:26:55 PM 34.9547 -84.7636 348° North 398 458 23,400 900 Climbing Atlanta Center
Tue 07:27:55 PM 35.0650 -84.7900 349° North 398 458 24,300 900 Climbing Atlanta Center
Tue 07:28:55 PM 35.1756 -84.8189 348° North 398 458 25,200 750 Climbing Atlanta Center
Tue 07:29:55 PM 35.2858 -84.8453 349° North 398 458 25,800 600 Climbing Atlanta Center
Tue 07:30:55 PM 35.4006 -84.8719 349° North 404 465 26,400 600 Climbing Atlanta Center
Tue 07:31:55 PM 35.5150 -84.9036 347° North 410 472 27,000 600 Climbing Atlanta Center
Tue 07:32:55 PM 35.6275 -84.9303 349° North 410 472 27,600 600 Climbing Atlanta Center
Tue 07:33:55 PM 35.7400 -84.9597 348° North 410 472 28,200 600 Climbing Atlanta Center
Tue 07:34:55 PM 35.8564 -84.9867 349° North 415 478 28,800 578 Climbing Atlanta Center
Tue 07:36:41 PM 36.0442 -85.0356 348° North 418 481 29,800 429 Climbing Indianapolis Center
Tue 07:37:43 PM 36.1586 -85.0606 350° North 416 479 30,000 97 Climbing Indianapolis Center
Tue 07:38:45 PM 36.2792 -85.0619 359° North 430 495 30,000  Level Indianapolis Center
Tue 07:39:46 PM 36.4272 -85.0658 359° North 440 506 30,000  Level Indianapolis Center
Tue 07:40:48 PM 36.5525 -85.0689 359° North 447 514 30,000  Level Indianapolis Center
Tue 07:41:50 PM 36.6792 -85.0722 359° North 452 520 30,000  Level Indianapolis Center
Tue 07:42:52 PM 36.8047 -85.0761 359° North 452 520 30,000  Level Indianapolis Center
Tue 07:43:54 PM 36.9303 -85.0806 358° North 450 518 30,000  Level Indianapolis Center
Tue 07:44:55 PM 37.0583 -85.0828 359° North 446 513 30,000  Level Indianapolis Center
Tue 07:45:57 PM 37.1819 -85.0867 359° North 445 512 30,000  Level Indianapolis Center
Tue 07:46:59 PM 37.3275 -85.0892 359° North 445 512 30,000  Level Indianapolis Center
Tue 07:48:01 PM 37.4525 -85.0925 359° North 445 512 30,000  Level Indianapolis Center
Tue 07:49:02 PM 37.5761 -85.0961 359° North 442 509 30,000  Level Indianapolis Center
Tue 07:50:04 PM 37.6986 -85.1003 358° North 439 505 30,000  Level Indianapolis Center
Tue 07:51:06 PM 37.8228 -85.1036 359° North 442 509 30,000  Level Indianapolis Center
Tue 07:52:08 PM 37.9486 -85.1053 359° North 449 517 30,000 -49 Level Indianapolis Center
Tue 07:53:09 PM 38.0733 -85.1086 359° North 446 513 29,900  Descending Indianapolis Center
Tue 07:54:11 PM 38.2178 -85.1150 358° North 444 511 30,000 48 Climbing Indianapolis Center
Tue 07:55:13 PM 38.3425 -85.1186 359° North 446 513 30,000  Level Indianapolis Center
Tue 07:56:14 PM 38.4692 -85.1217 359° North 450 518 30,000  Level Indianapolis Center
Tue 07:57:16 PM 38.5942 -85.1244 359° North 448 516 30,000  Level Indianapolis Center
Tue 07:58:18 PM 38.7219 -85.1300 358° North 451 519 30,000  Level Indianapolis Center
Tue 07:59:20 PM 38.8467 -85.1331 359° North 447 514 30,000  Level Indianapolis Center
Tue 08:00:21 PM 38.9706 -85.1364 359° North 445 512 30,000  Level Indianapolis Center
Tue 08:01:23 PM 39.0953 -85.1403 359° North 445 512 30,000 -341 Level Indianapolis Center
Tue 08:02:24 PM 39.2206 -85.1442 359° North 447 514 29,300 -1,024 Descending Indianapolis Center
Tue 08:03:26 PM 39.3708 -85.1478 359° North 460 529 27,900 -1,258 Descending Indianapolis Center
Tue 08:04:28 PM 39.5022 -85.1519 359° North 468 539 26,700 -1,171 Descending Indianapolis Center
Tue 08:05:29 PM 39.6336 -85.1542 359° North 469 540 25,500 -1,171 Descending Indianapolis Center
Tue 08:06:31 PM 39.7639 -85.1581 359° North 467 537 24,300 -1,258 Descending Indianapolis Center
Tue 08:07:33 PM 39.8936 -85.1614 359° North 466 536 22,900 -1,984 Descending Indianapolis Center
Tue 08:08:35 PM 40.0181 -85.1661 358° North 452 520 20,200 -2,488 Descending Indianapolis Center
Tue 08:09:36 PM 40.1311 -85.1694 359° North 414 476 17,800 -2,439 Descending Indianapolis Center
Tue 08:10:38 PM 40.2556 -85.1736 359° North 384 442 15,200 -2,371 Descending Indianapolis Center
Tue 08:11:40 PM 40.3589 -85.1758 359° North 372 428 12,900 -1,944 Descending Indianapolis Center
Tue 08:12:26 PM 40.4258 -85.1761 360° North 367 422 11,700 -1,444 Descending Chicago Center
Tue 08:13:28 PM 40.5328 -85.1794 359° North 329 379 10,300 -1,645 Descending Chicago Center
Tue 08:14:30 PM 40.6133 -85.1906 354° North 297 342 8,300 -1,984 Descending Chicago Center
Tue 08:15:32 PM 40.6928 -85.2053 352° North 289 333 6,200 -2,032 Descending Chicago Center
Tue 08:16:34 PM 40.7686 -85.2217 351° North 280 322 4,100 -2,032 Descending Chicago Center

Login

Don't have an account? Register now (free) for customized features, flight alerts, and more!